PWSweather.com
Personal Weather Stations
Station Observations
COONRAPIDS
Minneapolis, MN 55433

Minneapolis, MN 55433

Lat: 45.187721, Lon: -93.36828

Elevation: 898

Station Type: Davis Vantage Pro 2

High Low Average
Temperature 29.7°F-1.3°C 18.1°F-7.7°C 24.9°F-3.9°C
Dew Point 25.3°F-3.7°C 13.7°F-10.2°C 18.9°F-7.3°C
Winds 2.3 mph 3.7 kmh Calm Calm Calm ENECalm ENE
Wind Gusts 8.1 mph13.0 kmh -- 1.0 mph1.6 kmh
Humidity 84% 71% 78%
Pressure 30.48 in1032.2 mb 30.30 in1026.1 mb -
Precipitation 0.00 in0.0 mm - -
Hour Temp Dew Point Humidity Winds Wind Gusts Pressure Precip Precip Rate Daily Precip Total
12:00 AM 21.2°F-6.0°C 15.7°F-9.1°C 79% Calm Calm -- 30.30 in1026.1 mb - 0.00 in0.0 mm 0.00 in0.0 mm
12:10 AM 21.0°F-6.1°C 15.5°F-9.2°C 79% Calm Calm -- 30.30 in1026.1 mb - 0.00 in0.0 mm 0.00 in0.0 mm
12:20 AM 21.0°F-6.1°C 15.8°F-9.0°C 80% Calm Calm -- 30.30 in1026.1 mb - 0.00 in0.0 mm 0.00 in0.0 mm
12:30 AM 20.8°F-6.2°C 15.6°F-9.1°C 80% Calm Calm -- 30.30 in1026.1 mb - 0.00 in0.0 mm 0.00 in0.0 mm
12:40 AM 20.7°F-6.3°C 15.5°F-9.2°C 80% Calm Calm -- 30.30 in1026.1 mb - 0.00 in0.0 mm 0.00 in0.0 mm
12:50 AM 20.7°F-6.3°C 15.5°F-9.2°C 80% Calm Calm -- 30.30 in1026.1 mb - 0.00 in0.0 mm 0.00 in0.0 mm
01:00 AM 20.8°F-6.2°C 15.6°F-9.1°C 80% Calm Calm -- 30.30 in1026.1 mb - 0.00 in0.0 mm 0.00 in0.0 mm
01:10 AM 20.6°F-6.3°C 15.4°F-9.2°C 80% Calm Calm -- 30.30 in1026.1 mb - 0.00 in0.0 mm 0.00 in0.0 mm
01:20 AM 20.6°F-6.3°C 15.7°F-9.1°C 81% Calm Calm -- 30.31 in1026.4 mb - 0.00 in0.0 mm 0.00 in0.0 mm
01:30 AM 20.6°F-6.3°C 15.7°F-9.1°C 81% Calm Calm -- 30.31 in1026.4 mb - 0.00 in0.0 mm 0.00 in0.0 mm
01:40 AM 20.4°F-6.4°C 15.2°F-9.3°C 80% Calm Calm -- 30.32 in1026.8 mb - 0.00 in0.0 mm 0.00 in0.0 mm
01:50 AM 20.1°F-6.6°C 14.9°F-9.5°C 80% Calm Calm -- 30.32 in1026.8 mb - 0.00 in0.0 mm 0.00 in0.0 mm
02:00 AM 20.1°F-6.6°C 15.2°F-9.3°C 81% Calm Calm -- 30.33 in1027.1 mb - 0.00 in0.0 mm 0.00 in0.0 mm
02:10 AM 20.1°F-6.6°C 15.2°F-9.3°C 81% Calm Calm -- 30.33 in1027.1 mb - 0.00 in0.0 mm 0.00 in0.0 mm
02:20 AM 19.9°F-6.7°C 15.0°F-9.4°C 81% Calm Calm -- 30.33 in1027.1 mb - 0.00 in0.0 mm 0.00 in0.0 mm
02:30 AM 19.9°F-6.7°C 15.3°F-9.3°C 82% Calm Calm -- 30.33 in1027.1 mb - 0.00 in0.0 mm 0.00 in0.0 mm
02:40 AM 19.8°F-6.8°C 15.2°F-9.3°C 82% Calm Calm -- 30.34 in1027.4 mb - 0.00 in0.0 mm 0.00 in0.0 mm
02:50 AM 19.7°F-6.8°C 15.1°F-9.4°C 82% Calm Calm -- 30.34 in1027.4 mb - 0.00 in0.0 mm 0.00 in0.0 mm
03:00 AM 19.6°F-6.9°C 15.0°F-9.4°C 82% Calm Calm -- 30.34 in1027.4 mb - 0.00 in0.0 mm 0.00 in0.0 mm
03:10 AM 19.5°F-6.9°C 14.9°F-9.5°C 82% Calm Calm -- 30.34 in1027.4 mb - 0.00 in0.0 mm 0.00 in0.0 mm
03:20 AM 19.5°F-6.9°C 14.9°F-9.5°C 82% Calm Calm -- 30.34 in1027.4 mb - 0.00 in0.0 mm 0.00 in0.0 mm
03:30 AM 19.4°F-7.0°C 14.8°F-9.6°C 82% Calm Calm -- 30.34 in1027.4 mb - 0.00 in0.0 mm 0.00 in0.0 mm
03:40 AM 19.3°F-7.1°C 14.7°F-9.6°C 82% Calm Calm -- 30.35 in1027.8 mb - 0.00 in0.0 mm 0.00 in0.0 mm
03:50 AM 19.3°F-7.1°C 14.7°F-9.6°C 82% Calm Calm 2.3 mph3.7 kmh 30.35 in1027.8 mb - 0.00 in0.0 mm 0.00 in0.0 mm
04:00 AM 19.2°F-7.1°C 14.6°F-9.7°C 82% Calm Calm -- 30.35 in1027.8 mb - 0.00 in0.0 mm 0.00 in0.0 mm
04:10 AM 19.0°F-7.2°C 14.4°F-9.8°C 82% Calm Calm -- 30.36 in1028.1 mb - 0.00 in0.0 mm 0.00 in0.0 mm
04:20 AM 18.8°F-7.3°C 14.2°F-9.9°C 82% Calm Calm -- 30.36 in1028.1 mb - 0.00 in0.0 mm 0.00 in0.0 mm
04:30 AM 18.7°F-7.4°C 14.1°F-9.9°C 82% Calm Calm -- 30.36 in1028.1 mb - 0.00 in0.0 mm 0.00 in0.0 mm
04:40 AM 18.6°F-7.4°C 14.0°F-10.0°C 82% Calm Calm -- 30.36 in1028.1 mb - 0.00 in0.0 mm 0.00 in0.0 mm
04:50 AM 18.6°F-7.4°C 14.3°F-9.8°C 83% Calm Calm -- 30.36 in1028.1 mb - 0.00 in0.0 mm 0.00 in0.0 mm
05:00 AM 18.8°F-7.3°C 14.5°F-9.7°C 83% Calm Calm -- 30.36 in1028.1 mb - 0.00 in0.0 mm 0.00 in0.0 mm
05:10 AM 18.8°F-7.3°C 14.5°F-9.7°C 83% Calm Calm -- 30.36 in1028.1 mb - 0.00 in0.0 mm 0.00 in0.0 mm
05:20 AM 18.8°F-7.3°C 14.2°F-9.9°C 82% Calm Calm -- 30.36 in1028.1 mb - 0.00 in0.0 mm 0.00 in0.0 mm
05:30 AM 18.8°F-7.3°C 14.5°F-9.7°C 83% Calm Calm -- 30.37 in1028.4 mb - 0.00 in0.0 mm 0.00 in0.0 mm
05:40 AM 18.6°F-7.4°C 14.0°F-10.0°C 82% Calm Calm -- 30.37 in1028.4 mb - 0.00 in0.0 mm 0.00 in0.0 mm
05:50 AM 18.5°F-7.5°C 14.2°F-9.9°C 83% Calm Calm -- 30.37 in1028.4 mb - 0.00 in0.0 mm 0.00 in0.0 mm
06:00 AM 18.4°F-7.6°C 13.8°F-10.1°C 82% Calm Calm -- 30.37 in1028.4 mb - 0.00 in0.0 mm 0.00 in0.0 mm
06:10 AM 18.3°F-7.6°C 13.7°F-10.2°C 82% Calm Calm -- 30.38 in1028.8 mb - 0.00 in0.0 mm 0.00 in0.0 mm
06:20 AM 18.1°F-7.7°C 13.8°F-10.1°C 83% Calm Calm -- 30.38 in1028.8 mb - 0.00 in0.0 mm 0.00 in0.0 mm
06:30 AM 18.2°F-7.7°C 13.9°F-10.1°C 83% Calm Calm -- 30.38 in1028.8 mb - 0.00 in0.0 mm 0.00 in0.0 mm
06:40 AM 18.3°F-7.6°C 14.0°F-10.0°C 83% Calm Calm -- 30.37 in1028.4 mb - 0.00 in0.0 mm 0.00 in0.0 mm
06:50 AM 18.4°F-7.6°C 14.1°F-9.9°C 83% Calm Calm -- 30.38 in1028.8 mb - 0.00 in0.0 mm 0.00 in0.0 mm
07:00 AM 18.5°F-7.5°C 14.2°F-9.9°C 83% Calm Calm -- 30.37 in1028.4 mb - 0.00 in0.0 mm 0.00 in0.0 mm
07:10 AM 18.5°F-7.5°C 14.2°F-9.9°C 83% 1.2 mph NE1.9 kmh NE 1.2 mph1.9 kmh 30.38 in1028.8 mb - 0.00 in0.0 mm 0.00 in0.0 mm
07:20 AM 18.8°F-7.3°C 14.5°F-9.7°C 83% 1.2 mph ENE1.9 kmh ENE 3.5 mph5.6 kmh 30.38 in1028.8 mb - 0.00 in0.0 mm 0.00 in0.0 mm
07:30 AM 18.9°F-7.3°C 14.6°F-9.7°C 83% Calm Calm -- 30.38 in1028.8 mb - 0.00 in0.0 mm 0.00 in0.0 mm
07:40 AM 19.0°F-7.2°C 14.7°F-9.6°C 83% Calm Calm 1.2 mph1.9 kmh 30.38 in1028.8 mb - 0.00 in0.0 mm 0.00 in0.0 mm
07:50 AM 19.1°F-7.2°C 14.8°F-9.6°C 83% Calm Calm -- 30.39 in1029.1 mb - 0.00 in0.0 mm 0.00 in0.0 mm
08:00 AM 19.1°F-7.2°C 14.8°F-9.6°C 83% Calm Calm -- 30.39 in1029.1 mb - 0.00 in0.0 mm 0.00 in0.0 mm
08:10 AM 19.0°F-7.2°C 14.4°F-9.8°C 82% Calm Calm -- 30.39 in1029.1 mb - 0.00 in0.0 mm 0.00 in0.0 mm
08:20 AM 18.9°F-7.3°C 14.3°F-9.8°C 82% Calm Calm -- 30.39 in1029.1 mb - 0.00 in0.0 mm 0.00 in0.0 mm
08:30 AM 19.0°F-7.2°C 14.7°F-9.6°C 83% Calm Calm -- 30.40 in1029.5 mb - 0.00 in0.0 mm 0.00 in0.0 mm
08:40 AM 19.3°F-7.1°C 15.0°F-9.4°C 83% Calm Calm -- 30.40 in1029.5 mb - 0.00 in0.0 mm 0.00 in0.0 mm
08:50 AM 19.5°F-6.9°C 15.2°F-9.3°C 83% Calm Calm -- 30.41 in1029.8 mb - 0.00 in0.0 mm 0.00 in0.0 mm
09:00 AM 19.8°F-6.8°C 15.5°F-9.2°C 83% Calm Calm -- 30.41 in1029.8 mb - 0.00 in0.0 mm 0.00 in0.0 mm
09:10 AM 20.3°F-6.5°C 16.0°F-8.9°C 83% Calm Calm -- 30.41 in1029.8 mb - 0.00 in0.0 mm 0.00 in0.0 mm
09:20 AM 21.1°F-6.1°C 16.7°F-8.5°C 83% Calm Calm 2.3 mph3.7 kmh 30.42 in1030.1 mb - 0.00 in0.0 mm 0.00 in0.0 mm
09:30 AM 21.8°F-5.7°C 17.2°F-8.2°C 82% Calm Calm 2.3 mph3.7 kmh 30.42 in1030.1 mb - 0.00 in0.0 mm 0.00 in0.0 mm
09:40 AM 22.6°F-5.2°C 17.7°F-7.9°C 81% Calm Calm -- 30.42 in1030.1 mb - 0.00 in0.0 mm 0.00 in0.0 mm
09:50 AM 23.4°F-4.8°C 18.2°F-7.7°C 80% 2.3 mph NE3.7 kmh NE 3.5 mph5.6 kmh 30.43 in1030.5 mb - 0.00 in0.0 mm 0.00 in0.0 mm
10:00 AM 24.3°F-4.3°C 18.7°F-7.4°C 79% Calm Calm -- 30.43 in1030.5 mb - 0.00 in0.0 mm 0.00 in0.0 mm
10:10 AM 24.9°F-3.9°C 19.0°F-7.2°C 78% Calm Calm -- 30.43 in1030.5 mb - 0.00 in0.0 mm 0.00 in0.0 mm
10:20 AM 25.4°F-3.7°C 19.2°F-7.1°C 77% 1.2 mph ENE1.9 kmh ENE 3.5 mph5.6 kmh 30.43 in1030.5 mb - 0.00 in0.0 mm 0.00 in0.0 mm
10:30 AM 25.7°F-3.5°C 19.5°F-6.9°C 77% Calm Calm -- 30.44 in1030.8 mb - 0.00 in0.0 mm 0.00 in0.0 mm
10:40 AM 26.0°F-3.3°C 19.5°F-6.9°C 76% Calm Calm -- 30.44 in1030.8 mb - 0.00 in0.0 mm 0.00 in0.0 mm
10:50 AM 26.4°F-3.1°C 19.9°F-6.7°C 76% Calm Calm -- 30.43 in1030.5 mb - 0.00 in0.0 mm 0.00 in0.0 mm
11:00 AM 26.7°F-2.9°C 20.1°F-6.6°C 76% Calm Calm 4.6 mph7.4 kmh 30.43 in1030.5 mb - 0.00 in0.0 mm 0.00 in0.0 mm
11:10 AM 27.0°F-2.8°C 20.4°F-6.4°C 76% 2.3 mph E3.7 kmh E 4.6 mph7.4 kmh 30.43 in1030.5 mb - 0.00 in0.0 mm 0.00 in0.0 mm
11:20 AM 27.1°F-2.7°C 20.6°F-6.3°C 76% 2.3 mph ENE3.7 kmh ENE 4.6 mph7.4 kmh 30.43 in1030.5 mb - 0.00 in0.0 mm 0.00 in0.0 mm
11:30 AM 27.2°F-2.7°C 20.6°F-6.3°C 76% 1.2 mph E1.9 kmh E 4.6 mph7.4 kmh 30.42 in1030.1 mb - 0.00 in0.0 mm 0.00 in0.0 mm
11:40 AM 27.3°F-2.6°C 20.7°F-6.3°C 76% Calm Calm -- 30.42 in1030.1 mb - 0.00 in0.0 mm 0.00 in0.0 mm
11:50 AM 27.5°F-2.5°C 20.9°F-6.2°C 76% Calm Calm -- 30.42 in1030.1 mb - 0.00 in0.0 mm 0.00 in0.0 mm
12:00 PM 27.6°F-2.4°C 21.0°F-6.1°C 76% Calm Calm -- 30.41 in1029.8 mb - 0.00 in0.0 mm 0.00 in0.0 mm
12:10 PM 27.8°F-2.3°C 20.9°F-6.2°C 75% 1.2 mph NE1.9 kmh NE 4.6 mph7.4 kmh 30.41 in1029.8 mb - 0.00 in0.0 mm 0.00 in0.0 mm
12:20 PM 27.9°F-2.3°C 21.0°F-6.1°C 75% Calm Calm -- 30.41 in1029.8 mb - 0.00 in0.0 mm 0.00 in0.0 mm
12:30 PM 28.1°F-2.2°C 21.2°F-6.0°C 75% Calm Calm -- 30.41 in1029.8 mb - 0.00 in0.0 mm 0.00 in0.0 mm
12:40 PM 28.3°F-2.1°C 21.4°F-5.9°C 75% Calm Calm -- 30.41 in1029.8 mb - 0.00 in0.0 mm 0.00 in0.0 mm
12:50 PM 28.3°F-2.1°C 21.4°F-5.9°C 75% Calm Calm -- 30.41 in1029.8 mb - 0.00 in0.0 mm 0.00 in0.0 mm
01:00 PM 28.3°F-2.1°C 21.4°F-5.9°C 75% 1.2 mph E1.9 kmh E 2.3 mph3.7 kmh 30.41 in1029.8 mb - 0.00 in0.0 mm 0.00 in0.0 mm
01:10 PM 28.4°F-2.0°C 21.5°F-5.8°C 75% 1.2 mph ENE1.9 kmh ENE 3.5 mph5.6 kmh 30.41 in1029.8 mb - 0.00 in0.0 mm 0.00 in0.0 mm
01:20 PM 28.6°F-1.9°C 21.7°F-5.7°C 75% Calm Calm -- 30.41 in1029.8 mb - 0.00 in0.0 mm 0.00 in0.0 mm
01:30 PM 28.9°F-1.7°C 21.6°F-5.8°C 74% Calm Calm -- 30.41 in1029.8 mb - 0.00 in0.0 mm 0.00 in0.0 mm
01:40 PM 29.0°F-1.7°C 21.7°F-5.7°C 74% Calm Calm -- 30.41 in1029.8 mb - 0.00 in0.0 mm 0.00 in0.0 mm
01:50 PM 29.0°F-1.7°C 21.5°F-5.8°C 73% Calm Calm 8.1 mph13.0 kmh 30.41 in1029.8 mb - 0.00 in0.0 mm 0.00 in0.0 mm
02:00 PM 29.1°F-1.6°C 21.5°F-5.8°C 73% Calm Calm -- 30.41 in1029.8 mb - 0.00 in0.0 mm 0.00 in0.0 mm
02:10 PM 29.2°F-1.6°C 21.6°F-5.8°C 73% Calm Calm -- 30.41 in1029.8 mb - 0.00 in0.0 mm 0.00 in0.0 mm
02:20 PM 29.3°F-1.5°C 21.7°F-5.7°C 73% Calm Calm 2.3 mph3.7 kmh 30.41 in1029.8 mb - 0.00 in0.0 mm 0.00 in0.0 mm
02:30 PM 29.3°F-1.5°C 21.4°F-5.9°C 72% 1.2 mph E1.9 kmh E 2.3 mph3.7 kmh 30.41 in1029.8 mb - 0.00 in0.0 mm 0.00 in0.0 mm
02:40 PM 29.4°F-1.4°C 21.8°F-5.7°C 73% 1.2 mph ENE1.9 kmh ENE 3.5 mph5.6 kmh 30.41 in1029.8 mb - 0.00 in0.0 mm 0.00 in0.0 mm
02:50 PM 29.4°F-1.4°C 21.5°F-5.8°C 72% Calm Calm -- 30.41 in1029.8 mb - 0.00 in0.0 mm 0.00 in0.0 mm
03:00 PM 29.5°F-1.4°C 21.6°F-5.8°C 72% Calm Calm 1.2 mph1.9 kmh 30.42 in1030.1 mb - 0.00 in0.0 mm 0.00 in0.0 mm
03:10 PM 29.5°F-1.4°C 21.6°F-5.8°C 72% Calm Calm -- 30.42 in1030.1 mb - 0.00 in0.0 mm 0.00 in0.0 mm
03:20 PM 29.5°F-1.4°C 21.6°F-5.8°C 72% Calm Calm -- 30.42 in1030.1 mb - 0.00 in0.0 mm 0.00 in0.0 mm
03:30 PM 29.6°F-1.3°C 21.7°F-5.7°C 72% Calm Calm 1.2 mph1.9 kmh 30.42 in1030.1 mb - 0.00 in0.0 mm 0.00 in0.0 mm
03:40 PM 29.6°F-1.3°C 21.3°F-5.9°C 71% Calm Calm -- 30.43 in1030.5 mb - 0.00 in0.0 mm 0.00 in0.0 mm
03:50 PM 29.6°F-1.3°C 21.3°F-5.9°C 71% Calm Calm 1.2 mph1.9 kmh 30.43 in1030.5 mb - 0.00 in0.0 mm 0.00 in0.0 mm
04:00 PM 29.6°F-1.3°C 21.3°F-5.9°C 71% Calm Calm -- 30.42 in1030.1 mb - 0.00 in0.0 mm 0.00 in0.0 mm
04:10 PM 29.6°F-1.3°C 21.3°F-5.9°C 71% 1.2 mph ENE1.9 kmh ENE 3.5 mph5.6 kmh 30.43 in1030.5 mb - 0.00 in0.0 mm 0.00 in0.0 mm
04:20 PM 29.6°F-1.3°C 21.3°F-5.9°C 71% Calm Calm -- 30.43 in1030.5 mb - 0.00 in0.0 mm 0.00 in0.0 mm
04:30 PM 29.6°F-1.3°C 21.7°F-5.7°C 72% Calm Calm -- 30.44 in1030.8 mb - 0.00 in0.0 mm 0.00 in0.0 mm
04:40 PM 29.6°F-1.3°C 21.3°F-5.9°C 71% 1.2 mph NE1.9 kmh NE 2.3 mph3.7 kmh 30.44 in1030.8 mb - 0.00 in0.0 mm 0.00 in0.0 mm
04:50 PM 29.6°F-1.3°C 21.3°F-5.9°C 71% Calm Calm -- 30.44 in1030.8 mb - 0.00 in0.0 mm 0.00 in0.0 mm
05:00 PM 29.5°F-1.4°C 21.6°F-5.8°C 72% Calm Calm -- 30.44 in1030.8 mb - 0.00 in0.0 mm 0.00 in0.0 mm
05:10 PM 29.5°F-1.4°C 21.5°F-5.8°C 72% Calm Calm -- 30.44 in1030.8 mb - 0.00 in0.0 mm 0.00 in0.0 mm
05:20 PM 29.4°F-1.4°C 21.5°F-5.8°C 72% Calm Calm -- 30.45 in1031.2 mb - 0.00 in0.0 mm 0.00 in0.0 mm
05:30 PM 29.4°F-1.4°C 21.5°F-5.8°C 72% Calm Calm -- 30.45 in1031.2 mb - 0.00 in0.0 mm 0.00 in0.0 mm
05:40 PM 29.4°F-1.4°C 21.4°F-5.9°C 72% Calm Calm -- 30.45 in1031.2 mb - 0.00 in0.0 mm 0.00 in0.0 mm
05:50 PM 29.3°F-1.5°C 21.4°F-5.9°C 72% Calm Calm -- 30.45 in1031.2 mb - 0.00 in0.0 mm 0.00 in0.0 mm
06:00 PM 29.3°F-1.5°C 21.4°F-5.9°C 72% Calm Calm -- 30.45 in1031.2 mb - 0.00 in0.0 mm 0.00 in0.0 mm
06:10 PM 29.2°F-1.6°C 21.6°F-5.8°C 73% Calm Calm -- 30.45 in1031.2 mb - 0.00 in0.0 mm 0.00 in0.0 mm
06:20 PM 29.2°F-1.6°C 21.6°F-5.8°C 73% Calm Calm -- 30.46 in1031.5 mb - 0.00 in0.0 mm 0.00 in0.0 mm
06:30 PM 29.1°F-1.6°C 21.5°F-5.8°C 73% Calm Calm -- 30.46 in1031.5 mb - 0.00 in0.0 mm 0.00 in0.0 mm
06:40 PM 29.1°F-1.6°C 21.5°F-5.8°C 73% Calm Calm -- 30.46 in1031.5 mb - 0.00 in0.0 mm 0.00 in0.0 mm
06:50 PM 29.2°F-1.6°C 21.6°F-5.8°C 73% Calm Calm -- 30.46 in1031.5 mb - 0.00 in0.0 mm 0.00 in0.0 mm
07:00 PM 29.2°F-1.6°C 21.6°F-5.8°C 73% Calm Calm -- 30.46 in1031.5 mb - 0.00 in0.0 mm 0.00 in0.0 mm
07:10 PM 29.3°F-1.5°C 21.7°F-5.7°C 73% Calm Calm -- 30.46 in1031.5 mb - 0.00 in0.0 mm 0.00 in0.0 mm
07:20 PM 29.3°F-1.5°C 21.7°F-5.7°C 73% Calm Calm -- 30.46 in1031.5 mb - 0.00 in0.0 mm 0.00 in0.0 mm
07:30 PM 29.2°F-1.6°C 21.6°F-5.8°C 73% Calm Calm -- 30.46 in1031.5 mb - 0.00 in0.0 mm 0.00 in0.0 mm
07:40 PM 29.1°F-1.6°C 21.5°F-5.8°C 73% Calm Calm -- 30.46 in1031.5 mb - 0.00 in0.0 mm 0.00 in0.0 mm
07:50 PM 29.1°F-1.6°C 21.8°F-5.7°C 74% Calm Calm -- 30.45 in1031.2 mb - 0.00 in0.0 mm 0.00 in0.0 mm
08:00 PM 29.1°F-1.6°C 21.8°F-5.7°C 74% Calm Calm -- 30.46 in1031.5 mb - 0.00 in0.0 mm 0.00 in0.0 mm
08:10 PM 29.1°F-1.6°C 21.8°F-5.7°C 74% Calm Calm -- 30.46 in1031.5 mb - 0.00 in0.0 mm 0.00 in0.0 mm
08:20 PM 29.0°F-1.7°C 21.8°F-5.7°C 74% Calm Calm -- 30.46 in1031.5 mb - 0.00 in0.0 mm 0.00 in0.0 mm
08:30 PM 29.0°F-1.7°C 21.7°F-5.7°C 74% Calm Calm -- 30.46 in1031.5 mb - 0.00 in0.0 mm 0.00 in0.0 mm
08:40 PM 29.0°F-1.7°C 21.7°F-5.7°C 74% Calm Calm -- 30.46 in1031.5 mb - 0.00 in0.0 mm 0.00 in0.0 mm
08:50 PM 29.0°F-1.7°C 22.1°F-5.5°C 75% Calm Calm -- 30.46 in1031.5 mb - 0.00 in0.0 mm 0.00 in0.0 mm
09:00 PM 29.0°F-1.7°C 22.1°F-5.5°C 75% Calm Calm -- 30.47 in1031.8 mb - 0.00 in0.0 mm 0.00 in0.0 mm
09:10 PM 29.0°F-1.7°C 22.1°F-5.5°C 75% Calm Calm -- 30.47 in1031.8 mb - 0.00 in0.0 mm 0.00 in0.0 mm
09:20 PM 29.2°F-1.6°C 22.3°F-5.4°C 75% Calm Calm -- 30.47 in1031.8 mb - 0.00 in0.0 mm 0.00 in0.0 mm
09:30 PM 29.2°F-1.6°C 22.6°F-5.2°C 76% Calm Calm -- 30.47 in1031.8 mb - 0.00 in0.0 mm 0.00 in0.0 mm
09:40 PM 29.2°F-1.6°C 22.6°F-5.2°C 76% Calm Calm -- 30.47 in1031.8 mb - 0.00 in0.0 mm 0.00 in0.0 mm
09:50 PM 29.3°F-1.5°C 23.0°F-5.0°C 77% Calm Calm -- 30.48 in1032.2 mb - 0.00 in0.0 mm 0.00 in0.0 mm
10:00 PM 29.3°F-1.5°C 23.0°F-5.0°C 77% Calm Calm -- 30.48 in1032.2 mb - 0.00 in0.0 mm 0.00 in0.0 mm
10:10 PM 29.3°F-1.5°C 23.0°F-5.0°C 77% Calm Calm -- 30.47 in1031.8 mb - 0.00 in0.0 mm 0.00 in0.0 mm
10:20 PM 29.3°F-1.5°C 23.0°F-5.0°C 77% 1.2 mph ENE1.9 kmh ENE 3.5 mph5.6 kmh 30.48 in1032.2 mb - 0.00 in0.0 mm 0.00 in0.0 mm
10:30 PM 29.4°F-1.4°C 23.4°F-4.8°C 78% Calm Calm -- 30.47 in1031.8 mb - 0.00 in0.0 mm 0.00 in0.0 mm
10:40 PM 29.5°F-1.4°C 24.1°F-4.4°C 80% Calm Calm -- 30.47 in1031.8 mb - 0.00 in0.0 mm 0.00 in0.0 mm
10:50 PM 29.7°F-1.3°C 24.6°F-4.1°C 81% Calm Calm 2.3 mph3.7 kmh 30.47 in1031.8 mb - 0.00 in0.0 mm 0.00 in0.0 mm
11:00 PM 29.7°F-1.3°C 24.9°F-3.9°C 82% Calm Calm 3.5 mph5.6 kmh 30.47 in1031.8 mb - 0.00 in0.0 mm 0.00 in0.0 mm
11:10 PM 29.7°F-1.3°C 24.9°F-3.9°C 82% Calm Calm -- 30.47 in1031.8 mb - 0.00 in0.0 mm 0.00 in0.0 mm
11:20 PM 29.6°F-1.3°C 25.1°F-3.8°C 83% Calm Calm -- 30.47 in1031.8 mb - 0.00 in0.0 mm 0.00 in0.0 mm
11:30 PM 29.5°F-1.4°C 25.3°F-3.7°C 84% Calm Calm 4.6 mph7.4 kmh 30.47 in1031.8 mb - 0.00 in0.0 mm 0.00 in0.0 mm
11:40 PM 29.4°F-1.4°C 25.2°F-3.8°C 84% Calm Calm -- 30.47 in1031.8 mb - 0.00 in0.0 mm 0.00 in0.0 mm
11:50 PM 29.4°F-1.4°C 25.2°F-3.8°C 84% Calm Calm -- 30.47 in1031.8 mb - 0.00 in0.0 mm 0.00 in0.0 mm